Time;durP1;ratioP1;P1;durP2;ratioP2;P2;SDS_P1;SDS_P2;PMS_P1;PMS_P2;Temp;Humidity;BMP_temperature;BMP_pressure;BME280_temperature;BME280_humidity;BME280_pressure;Samples;Min_cycle;Max_cycle;Signal;HPM_P1;HPM_P2
2022/09/11 00:00:54;;;;;;;16.45;12.55;;;17.00;99.90;;;;;;4975102;28;20026;-74
2022/09/11 00:03:23;;;;;;;16.40;12.65;;;17.00;99.90;;;;;;4992752;28;20475;-74
2022/09/11 00:05:50;;;;;;;14.77;11.32;;;17.00;99.90;;;;;;4992366;28;20031;-74
2022/09/11 00:08:18;;;;;;;14.63;11.82;;;16.90;99.90;;;;;;4992769;28;20049;-74
2022/09/11 00:10:47;;;;;;;13.30;11.55;;;16.90;99.90;;;;;;4992499;28;20046;-74
2022/09/11 00:13:14;;;;;;;;;;;16.90;99.90;;;;;;4992987;28;20290;-74
2022/09/11 00:15:47;;;;;;;16.50;12.63;;;16.80;99.90;;;;;;4992256;28;20420;-74
2022/09/11 00:18:16;;;;;;;15.25;11.07;;;16.80;99.90;;;;;;4992330;28;20041;-73
2022/09/11 00:20:55;;;;;;;15.98;11.40;;;16.70;99.90;;;;;;4992081;28;20030;-74
2022/09/11 00:23:23;;;;;;;16.63;11.45;;;16.70;99.90;;;;;;4992455;28;20546;-74
2022/09/11 00:25:49;;;;;;;16.77;11.27;;;16.60;99.90;;;;;;4992075;28;20499;-74
2022/09/11 00:28:21;;;;;;;15.60;11.20;;;16.60;99.90;;;;;;4958691;28;20293;-74
2022/09/11 00:31:16;;;;;;;14.75;11.07;;;16.60;99.90;;;;;;4991787;28;20554;-74
2022/09/11 00:33:43;;;;;;;12.70;9.38;;;16.60;99.90;;;;;;4974129;28;20042;-74
2022/09/11 00:36:17;;;;;;;16.05;11.38;;;16.60;99.90;;;;;;4974399;28;20030;-73
2022/09/11 00:38:45;;;;;;;12.68;10.02;;;16.60;99.90;;;;;;4991856;28;20057;-75
2022/09/11 00:41:21;;;;;;;15.43;10.90;;;16.60;99.90;;;;;;4992088;28;20424;-73
2022/09/11 00:44:06;;;;;;;14.80;10.93;;;16.60;99.90;;;;;;4974528;28;20548;-73
2022/09/11 00:46:41;;;;;;;17.13;11.73;;;16.50;99.90;;;;;;4991776;28;20092;-73
2022/09/11 00:49:35;;;;;;;18.08;11.35;;;16.50;99.90;;;;;;4974265;28;20491;-73
2022/09/11 00:52:07;;;;;;;14.40;11.07;;;16.50;99.90;;;;;;4991778;28;20160;-73
2022/09/11 00:54:55;;;;;;;14.85;10.88;;;16.50;99.90;;;;;;4992134;28;20026;-73
2022/09/11 00:57:24;;;;;;;14.37;9.47;;;16.40;99.90;;;;;;4974006;28;20077;-73
2022/09/11 00:59:54;;;;;;;14.52;11.15;;;16.50;99.90;;;;;;4974420;28;20538;-73
2022/09/11 01:02:22;;;;;;;13.80;10.73;;;16.40;99.90;;;;;;4992042;28;20029;-73
2022/09/11 01:04:49;;;;;;;12.73;10.35;;;16.40;99.90;;;;;;4992084;28;20022;-73
2022/09/11 01:07:17;;;;;;;14.48;10.93;;;16.40;99.90;;;;;;4991620;28;20030;-73
2022/09/11 01:09:43;;;;;;;14.95;10.90;;;16.40;99.90;;;;;;4974176;28;20034;-73
2022/09/11 01:12:15;;;;;;;12.93;9.80;;;16.40;99.90;;;;;;4958216;28;20054;-73
2022/09/11 01:14:59;;;;;;;14.73;10.23;;;16.40;99.90;;;;;;4997654;28;20460;-73
2022/09/11 01:17:39;;;;;;;16.95;10.93;;;16.40;99.90;;;;;;4980761;28;20038;-73
2022/09/11 01:20:23;;;;;;;17.10;11.35;;;16.30;99.90;;;;;;4997858;28;20054;-74
2022/09/11 01:23:07;;;;;;;16.23;10.70;;;16.20;99.90;;;;;;4998179;28;20030;-73
2022/09/11 01:25:57;;;;;;;15.55;11.35;;;16.20;99.90;;;;;;4964591;28;20112;-74
2022/09/11 01:28:30;;;;;;;13.82;10.80;;;16.20;99.90;;;;;;4980581;28;20034;-74
2022/09/11 01:31:01;;;;;;;16.23;10.88;;;16.20;99.90;;;;;;4980633;28;20053;-74
2022/09/11 01:33:36;;;;;;;13.20;10.00;;;16.20;99.90;;;;;;4980710;28;20045;-73
2022/09/11 01:36:12;;;;;;;13.63;10.63;;;16.20;99.90;;;;;;4997959;28;20030;-74
2022/09/11 01:38:50;;;;;;;13.70;10.00;;;16.20;99.90;;;;;;4980351;28;20042;-73
2022/09/11 01:41:28;;;;;;;17.77;11.27;;;16.20;99.90;;;;;;4980384;28;20038;-74
2022/09/11 01:43:57;;;;;;;14.48;10.55;;;16.20;99.90;;;;;;4980524;28;20265;-73
2022/09/11 01:46:26;;;;;;;13.25;10.00;;;16.20;99.90;;;;;;4964423;28;20030;-74
2022/09/11 01:49:05;;;;;;;17.15;11.63;;;16.20;99.90;;;;;;4980349;28;20030;-74
2022/09/11 01:51:35;;;;;;;16.55;11.48;;;16.20;99.90;;;;;;4980612;28;20360;-74
2022/09/11 01:54:05;;;;;;;15.30;10.73;;;16.20;99.90;;;;;;4980340;28;20030;-74
2022/09/11 01:56:43;;;;;;;14.10;10.27;;;16.20;99.90;;;;;;4980347;28;20034;-74
2022/09/11 01:59:13;;;;;;;16.65;10.70;;;16.20;99.90;;;;;;4980156;28;20033;-74
2022/09/11 02:01:44;;;;;;;16.13;11.52;;;16.20;99.90;;;;;;4997745;28;20117;-74
2022/09/11 02:04:36;;;;;;;15.50;11.23;;;16.20;99.90;;;;;;4980328;28;20080;-74
2022/09/11 02:07:09;;;;;;;16.25;11.07;;;16.20;99.90;;;;;;4980126;28;20034;-74
2022/09/11 02:09:43;;;;;;;16.98;11.73;;;16.20;99.90;;;;;;4997714;28;20026;-74
2022/09/11 02:12:12;;;;;;;17.30;12.40;;;16.20;99.90;;;;;;4980297;28;20085;-74
2022/09/11 02:14:40;;;;;;;;;;;16.20;99.90;;;;;;4980999;28;20030;-74
2022/09/11 02:17:31;;;;;;;21.52;14.80;;;16.30;99.90;;;;;;4980243;28;19917;-73
2022/09/11 02:19:59;;;;;;;28.45;18.13;;;16.30;99.90;;;;;;4997314;28;20033;-74
2022/09/11 02:22:25;;;;;;;22.42;15.40;;;16.40;99.90;;;;;;4964025;28;20130;-74
2022/09/11 02:24:51;;;;;;;21.55;15.40;;;16.40;99.90;;;;;;4977747;28;20033;-73
2022/09/11 02:27:22;;;;;;;23.42;16.15;;;16.40;99.90;;;;;;4977361;28;20424;-74
2022/09/11 02:29:49;;;;;;;27.98;18.48;;;16.40;99.90;;;;;;4976752;28;20050;-74
2022/09/11 02:32:17;;;;;;;23.48;17.10;;;16.40;99.90;;;;;;4976969;28;20056;-74
2022/09/11 02:34:47;;;;;;;25.88;18.08;;;16.40;99.90;;;;;;4976955;28;20034;-74
2022/09/11 02:37:37;;;;;;;30.17;16.45;;;16.30;99.90;;;;;;4976731;28;20184;-74
2022/09/11 02:40:06;;;;;;;21.08;14.95;;;16.30;99.90;;;;;;5012130;23;20083;-73
2022/09/11 02:43:07;;;;;;;24.67;16.77;;;16.30;99.90;;;;;;5052282;28;20025;-73
2022/09/11 02:45:40;;;;;;;;;;;16.30;99.90;;;;;;5052659;28;20196;-73
2022/09/11 02:48:27;;;;;;;29.58;20.13;;;16.30;99.90;;;;;;5052000;28;19955;-73
2022/09/11 02:51:24;;;;;;;24.27;17.92;;;16.40;99.90;;;;;;5051802;28;20029;-73
2022/09/11 02:54:09;;;;;;;24.75;18.15;;;16.40;99.90;;;;;;5011580;28;20055;-73
2022/09/11 02:56:51;;;;;;;31.00;20.55;;;16.40;99.90;;;;;;5035272;28;20044;-73
2022/09/11 02:59:25;;;;;;;33.33;22.02;;;16.40;99.90;;;;;;5052966;28;20040;-73
2022/09/11 03:01:54;;;;;;;34.50;22.20;;;16.40;99.90;;;;;;5035170;28;20029;-73
2022/09/11 03:04:23;;;;;;;33.58;23.90;;;16.40;99.90;;;;;;5051726;28;20029;-73
2022/09/11 03:06:52;;;;;;;35.28;23.25;;;16.50;99.90;;;;;;5035324;28;20052;-73
2022/09/11 03:09:19;;;;;;;39.42;25.08;;;16.50;99.90;;;;;;5051524;28;20036;-73
2022/09/11 03:11:47;;;;;;;40.40;25.02;;;16.50;99.90;;;;;;5051554;28;20029;-73
2022/09/11 03:14:14;;;;;;;46.70;27.70;;;16.50;99.90;;;;;;5051592;28;20033;-73
2022/09/11 03:16:41;;;;;;;41.05;25.77;;;16.60;99.90;;;;;;5051458;28;20033;-73
2022/09/11 03:19:09;;;;;;;40.28;26.13;;;16.60;99.90;;;;;;5051320;28;20067;-73
2022/09/11 03:21:35;;;;;;;38.63;25.63;;;16.60;99.90;;;;;;5051229;28;20040;-73
2022/09/11 03:24:02;;;;;;;40.85;27.17;;;16.60;99.90;;;;;;5051354;28;20025;-73
2022/09/11 03:26:32;;;;;;;43.78;28.23;;;16.60;99.90;;;;;;5051285;28;20127;-73
2022/09/11 03:28:59;;;;;;;44.92;27.70;;;16.60;99.90;;;;;;5051328;28;20465;-73
2022/09/11 03:31:25;;;;;;;47.00;28.40;;;16.60;99.90;;;;;;5051098;28;20497;-73
2022/09/11 03:33:51;;;;;;;42.88;27.25;;;16.50;99.90;;;;;;5053057;28;20083;-73
2022/09/11 03:36:19;;;;;;;48.40;29.10;;;16.50;99.90;;;;;;5050711;28;20497;-73
2022/09/11 03:38:45;;;;;;;45.80;28.90;;;16.50;99.90;;;;;;5052324;28;20457;-73
2022/09/11 03:41:13;;;;;;;45.45;28.75;;;16.50;99.90;;;;;;5050772;28;20139;-73
2022/09/11 03:43:39;;;;;;;40.08;25.20;;;16.50;99.90;;;;;;5052716;28;20421;-73
2022/09/11 03:46:06;;;;;;;39.33;25.08;;;16.50;99.90;;;;;;5050755;28;20119;-73
2022/09/11 03:48:33;;;;;;;45.70;28.35;;;16.60;99.90;;;;;;5050730;28;20560;-73
2022/09/11 03:51:03;;;;;;;46.53;28.17;;;16.50;99.90;;;;;;5050709;28;20416;-73
2022/09/11 03:53:31;;;;;;;48.30;30.38;;;16.50;99.90;;;;;;5034346;28;20590;-73
2022/09/11 03:55:59;;;;;;;50.00;31.02;;;16.60;99.90;;;;;;5034114;28;20516;-73
2022/09/11 03:58:27;;;;;;;46.38;28.23;;;16.50;99.90;;;;;;5050659;28;20049;-73
2022/09/11 04:00:53;;;;;;;45.85;27.92;;;16.50;99.90;;;;;;5050453;28;20037;-73
2022/09/11 04:03:19;;;;;;;45.60;27.45;;;16.50;99.90;;;;;;5050664;28;20450;-74
2022/09/11 04:05:56;;;;;;;47.00;27.80;;;16.60;99.90;;;;;;5050676;28;20031;-73
2022/09/11 04:08:22;;;;;;;46.53;27.90;;;16.50;99.90;;;;;;5050603;28;20196;-73
2022/09/11 04:10:55;;;;;;;48.63;29.75;;;16.60;99.90;;;;;;5050187;28;20486;-73
2022/09/11 04:13:32;;;;;;;46.25;27.38;;;16.60;99.90;;;;;;5050373;28;20098;-73
2022/09/11 04:16:05;;;;;;;58.97;32.08;;;16.60;99.90;;;;;;5050512;28;20037;-73
2022/09/11 04:18:36;;;;;;;58.42;32.83;;;16.60;99.90;;;;;;5050237;28;20040;-73
2022/09/11 04:21:10;;;;;;;58.95;32.33;;;16.60;99.90;;;;;;5050193;28;20032;-73
2022/09/11 04:23:37;;;;;;;60.83;32.80;;;16.60;99.90;;;;;;5051606;28;20080;-73
2022/09/11 04:26:12;;;;;;;56.65;31.80;;;16.60;99.90;;;;;;5051416;28;20036;-73
2022/09/11 04:28:38;;;;;;;54.13;30.45;;;16.60;99.90;;;;;;5050311;28;20029;-73
2022/09/11 04:31:04;;;;;;;60.70;31.08;;;16.60;99.90;;;;;;5033437;28;20039;-73
2022/09/11 04:33:33;;;;;;;70.95;36.22;;;16.60;99.90;;;;;;5050168;28;20129;-73
2022/09/11 04:36:05;;;;;;;64.72;36.60;;;16.60;99.90;;;;;;5033512;28;20028;-73
2022/09/11 04:38:31;;;;;;;70.15;37.17;;;16.60;99.90;;;;;;5049858;28;20025;-73
2022/09/11 04:41:03;;;;;;;69.90;36.55;;;16.60;99.90;;;;;;5050600;28;20277;-73
2022/09/11 04:43:30;;;;;;;70.72;36.90;;;16.60;99.90;;;;;;5049068;28;20086;-73
2022/09/11 04:45:59;;;;;;;;;;;16.60;99.90;;;;;;5049407;28;20489;-73
2022/09/11 04:48:25;;;;;;;80.32;39.40;;;16.60;99.90;;;;;;5048214;28;19908;-73
2022/09/11 04:51:04;;;;;;;84.55;40.13;;;16.50;99.90;;;;;;5050010;28;20497;-73
2022/09/11 04:53:31;;;;;;;90.43;39.13;;;16.60;99.90;;;;;;5050260;28;20118;-73
2022/09/11 04:56:16;;;;;;;86.00;40.22;;;16.50;99.90;;;;;;5048838;28;20429;-73
2022/09/11 04:58:45;;;;;;;87.88;41.42;;;16.60;99.90;;;;;;5048801;28;20036;-73
2022/09/11 05:01:15;;;;;;;90.13;40.33;;;16.60;99.90;;;;;;5048781;28;20036;-73
2022/09/11 05:03:43;;;;;;;91.00;41.40;;;16.60;99.90;;;;;;5048951;28;20032;-73
2022/09/11 05:06:15;;;;;;;83.60;39.90;;;16.50;99.90;;;;;;5048847;28;20032;-73
2022/09/11 05:08:43;;;;;;;93.75;41.60;;;16.50;99.90;;;;;;5048665;28;20436;-73
2022/09/11 05:11:12;;;;;;;90.57;39.80;;;16.60;99.90;;;;;;5048528;28;20027;-73
2022/09/11 05:13:39;;;;;;;85.80;39.35;;;16.60;99.90;;;;;;5048622;28;20083;-73
2022/09/11 05:16:10;;;;;;;94.95;42.40;;;16.50;99.90;;;;;;5048601;28;20036;-73
2022/09/11 05:18:40;;;;;;;81.60;36.55;;;16.50;99.90;;;;;;5049713;28;20025;-73
2022/09/11 05:21:14;;;;;;;85.85;38.67;;;16.60;99.90;;;;;;5048589;28;20021;-73
2022/09/11 05:23:48;;;;;;;95.65;42.05;;;16.60;99.90;;;;;;5048663;28;20028;-73
2022/09/11 05:26:22;;;;;;;102.45;43.92;;;16.60;99.90;;;;;;5048451;28;20032;-73
2022/09/11 05:28:59;;;;;;;110.68;45.90;;;16.60;99.90;;;;;;5048430;28;20035;-74
2022/09/11 05:31:26;;;;;;;102.90;43.08;;;16.60;99.90;;;;;;5048322;28;20033;-73
2022/09/11 05:33:57;;;;;;;114.68;46.58;;;16.60;99.90;;;;;;5048345;28;20029;-73
2022/09/11 05:36:26;;;;;;;109.78;44.25;;;16.60;99.90;;;;;;5048308;28;20047;-73
2022/09/11 05:38:53;;;;;;;111.32;45.95;;;16.60;99.90;;;;;;5031566;28;20029;-73
2022/09/11 05:41:19;;;;;;;115.57;45.30;;;16.70;99.90;;;;;;5007337;28;1185631;-74
2022/09/11 05:43:45;;;;;;;109.97;43.58;;;16.70;99.90;;;;;;5049295;28;20033;-73
2022/09/11 05:46:16;;;;;;;121.88;48.80;;;16.70;99.90;;;;;;5049048;28;20401;-73
2022/09/11 05:48:44;;;;;;;121.85;49.10;;;16.70;99.90;;;;;;5049206;28;20037;-73
2022/09/11 05:51:17;;;;;;;120.63;48.83;;;16.70;99.90;;;;;;5032402;28;20037;-73
2022/09/11 05:53:44;;;;;;;105.22;46.35;;;16.70;99.90;;;;;;5049293;28;20129;-76
2022/09/11 05:56:16;;;;;;;107.03;47.40;;;16.70;99.90;;;;;;5049088;28;20588;-73
2022/09/11 05:58:45;;;;;;;111.32;50.72;;;16.70;99.90;;;;;;5049148;28;20060;-76
2022/09/11 06:01:13;;;;;;;122.07;50.60;;;16.70;99.90;;;;;;5052885;28;20036;-73
2022/09/11 06:03:42;;;;;;;121.47;52.53;;;16.70;99.90;;;;;;5052788;28;20065;-73
2022/09/11 06:06:11;;;;;;;135.52;55.03;;;16.70;99.90;;;;;;5052858;28;20060;-76
2022/09/11 06:08:38;;;;;;;139.80;53.90;;;16.70;99.90;;;;;;5052773;28;20413;-73
2022/09/11 06:11:06;;;;;;;142.93;55.80;;;16.60;99.90;;;;;;5053924;28;20098;-74
2022/09/11 06:13:37;;;;;;;137.40;55.20;;;16.60;99.90;;;;;;5052763;28;20378;-73
2022/09/11 06:16:07;;;;;;;130.35;53.42;;;16.60;99.90;;;;;;5052567;28;20036;-73
2022/09/11 06:18:33;;;;;;;120.50;50.15;;;16.60;99.90;;;;;;5053756;28;20033;-73
2022/09/11 06:21:05;;;;;;;110.13;47.35;;;16.60;99.90;;;;;;5052487;28;20025;-75
2022/09/11 06:23:39;;;;;;;117.28;48.72;;;16.60;99.90;;;;;;5052659;28;20040;-76
2022/09/11 06:26:11;;;;;;;119.43;47.90;;;16.60;99.90;;;;;;5052253;28;20032;-73
2022/09/11 06:28:41;;;;;;;127.15;52.00;;;16.60;99.90;;;;;;5052317;28;20025;-73
2022/09/11 06:31:10;;;;;;;123.70;50.13;;;16.60;99.90;;;;;;5052395;28;20033;-75
2022/09/11 06:33:38;;;;;;;132.68;54.30;;;16.60;99.90;;;;;;5052453;28;20058;-73
2022/09/11 06:36:10;;;;;;;128.98;50.15;;;16.60;99.90;;;;;;5052234;28;20063;-73
2022/09/11 06:38:37;;;;;;;137.77;56.83;;;16.70;99.90;;;;;;5052095;28;20033;-73
2022/09/11 06:41:09;;;;;;;146.10;57.35;;;16.70;99.90;;;;;;5035655;28;20033;-73
2022/09/11 06:43:36;;;;;;;145.07;56.88;;;16.70;99.90;;;;;;5052287;28;20124;-74
2022/09/11 06:46:13;;;;;;;151.07;60.13;;;16.80;99.90;;;;;;5051961;28;20577;-76
2022/09/11 06:48:41;;;;;;;151.38;57.97;;;16.70;99.90;;;;;;5052084;28;20033;-73
2022/09/11 06:51:10;;;;;;;124.78;52.80;;;16.80;99.90;;;;;;5052125;28;20041;-73
2022/09/11 06:53:36;;;;;;;;;;;16.80;99.90;;;;;;5052661;28;20481;-74
2022/09/11 06:56:11;;;;;;;118.47;51.25;;;16.80;99.90;;;;;;5051984;28;19916;-74
2022/09/11 06:58:38;;;;;;;128.80;52.88;;;16.80;99.90;;;;;;5051830;28;20037;-73
2022/09/11 07:01:06;;;;;;;113.28;48.38;;;16.80;99.90;;;;;;5053193;28;20068;-73
2022/09/11 07:03:33;;;;;;;123.55;50.97;;;16.80;99.90;;;;;;5052031;28;20370;-73
2022/09/11 07:06:01;;;;;;;126.80;52.53;;;16.90;99.90;;;;;;5051661;28;20033;-74
2022/09/11 07:08:27;;;;;;;116.00;49.38;;;16.90;99.90;;;;;;5051686;28;20037;-73
2022/09/11 07:11:01;;;;;;;116.38;50.95;;;16.90;99.90;;;;;;5051389;28;20033;-73
2022/09/11 07:13:28;;;;;;;125.35;52.88;;;16.90;99.90;;;;;;5035394;28;20036;-73
2022/09/11 07:16:01;;;;;;;125.40;52.03;;;16.90;99.90;;;;;;5051773;28;20550;-73
2022/09/11 07:18:39;;;;;;;120.38;49.83;;;17.00;99.90;;;;;;5051589;28;20070;-76
2022/09/11 07:21:18;;;;;;;128.80;52.15;;;17.00;99.90;;;;;;5051584;28;20284;-73
2022/09/11 07:23:47;;;;;;;124.00;52.90;;;17.00;99.90;;;;;;5051391;28;20049;-73
2022/09/11 07:26:15;;;;;;;132.10;57.03;;;17.00;99.90;;;;;;5051415;28;20032;-74
2022/09/11 07:28:41;;;;;;;131.20;54.88;;;17.00;99.90;;;;;;5051238;28;20397;-73
2022/09/11 07:31:13;;;;;;;127.85;53.75;;;17.00;99.90;;;;;;5051128;28;20033;-73
2022/09/11 07:33:45;;;;;;;124.38;54.13;;;17.00;99.90;;;;;;5051181;28;20120;-73
2022/09/11 07:36:13;;;;;;;127.95;55.13;;;17.00;99.90;;;;;;5051276;28;20029;-73
2022/09/11 07:38:46;;;;;;;128.07;55.33;;;17.00;99.90;;;;;;5050949;28;20029;-73
2022/09/11 07:41:15;;;;;;;128.38;54.53;;;17.00;99.90;;;;;;5050930;28;20032;-73
2022/09/11 07:43:45;;;;;;;121.63;52.87;;;17.00;99.90;;;;;;5051072;28;20060;-73
2022/09/11 07:46:13;;;;;;;137.68;56.28;;;17.00;99.90;;;;;;5051051;28;20605;-73
2022/09/11 07:48:41;;;;;;;128.45;54.53;;;17.00;99.90;;;;;;5050673;28;20504;-73
2022/09/11 07:51:11;;;;;;;121.78;52.00;;;17.00;99.90;;;;;;5050837;28;20504;-73
2022/09/11 07:53:42;;;;;;;124.47;51.47;;;17.00;99.90;;;;;;5034330;28;20029;-74
2022/09/11 07:56:13;;;;;;;131.57;55.40;;;17.00;99.90;;;;;;5034249;28;20067;-73
2022/09/11 07:58:41;;;;;;;143.45;55.67;;;17.00;99.90;;;;;;5050644;28;20087;-73
2022/09/11 08:01:14;;;;;;;130.45;53.28;;;17.00;99.90;;;;;;5050489;28;20108;-74
2022/09/11 08:03:44;;;;;;;129.50;53.17;;;17.00;99.90;;;;;;5050775;28;20040;-73
2022/09/11 08:06:13;;;;;;;129.10;53.22;;;17.00;99.90;;;;;;5050565;28;20029;-73
2022/09/11 08:08:42;;;;;;;129.52;53.25;;;17.00;99.90;;;;;;5050378;28;20025;-73
2022/09/11 08:11:11;;;;;;;143.02;57.28;;;16.90;99.90;;;;;;5050531;28;20040;-74
2022/09/11 08:13:38;;;;;;;142.52;56.88;;;17.00;99.90;;;;;;5051648;28;20064;-73
2022/09/11 08:16:05;;;;;;;130.68;53.13;;;16.90;99.90;;;;;;5050161;28;20078;-75
2022/09/11 08:18:31;;;;;;;142.75;57.25;;;16.90;99.90;;;;;;5051340;28;20052;-73
2022/09/11 08:21:10;;;;;;;136.77;56.35;;;16.90;99.90;;;;;;5050194;28;20029;-73
2022/09/11 08:23:42;;;;;;;154.20;59.65;;;16.90;99.90;;;;;;5050680;28;20025;-73
2022/09/11 08:26:25;;;;;;;154.93;58.35;;;16.90;99.90;;;;;;5050190;28;20025;-73
2022/09/11 08:28:54;;;;;;;149.48;57.03;;;16.90;99.90;;;;;;5033718;28;20029;-73
2022/09/11 08:31:27;;;;;;;159.65;61.63;;;16.80;99.90;;;;;;5049957;28;20029;-73
2022/09/11 08:33:55;;;;;;;149.43;59.15;;;16.90;99.90;;;;;;5049990;28;20033;-73
2022/09/11 08:36:22;;;;;;;142.68;55.55;;;16.80;99.90;;;;;;5049868;28;20036;-73
2022/09/11 08:38:50;;;;;;;131.32;53.55;;;16.80;99.90;;;;;;5033328;28;20047;-75
2022/09/11 08:41:22;;;;;;;123.43;53.65;;;16.80;99.90;;;;;;5057198;23;20053;-82
2022/09/11 08:44:00;;;;;;;126.85;52.30;;;16.90;99.90;;;;;;5029978;28;20056;-82
2022/09/11 08:46:34;;;;;;;121.90;52.47;;;16.90;99.90;;;;;;5029708;28;20033;-82
2022/09/11 08:49:42;;;;;;;116.32;49.33;;;16.80;99.90;;;;;;5029688;28;20448;-82
2022/09/11 08:52:11;;;;;;;94.30;44.50;;;16.80;99.90;;;;;;5026588;28;20108;-82
2022/09/11 08:54:38;;;;;;;;;;;16.80;99.90;;;;;;5026825;28;20034;-82
2022/09/11 08:57:19;;;;;;;93.82;41.83;;;16.80;99.90;;;;;;5009647;28;20401;-82
2022/09/11 09:00:09;;;;;;;84.05;40.90;;;16.80;99.90;;;;;;5009690;28;20026;-82
2022/09/11 09:02:56;;;;;;;80.40;38.45;;;16.80;99.90;;;;;;5009942;28;20152;-82
2022/09/11 09:05:55;;;;;;;82.32;39.63;;;16.80;99.90;;;;;;5009867;28;20022;-82
2022/09/11 09:08:46;;;;;;;78.20;38.40;;;16.80;99.90;;;;;;5009945;28;20033;-82
2022/09/11 09:11:54;;;;;;;94.50;44.47;;;16.90;99.90;;;;;;5009610;28;20486;-82
2022/09/11 09:14:34;;;;;;;83.28;42.03;;;16.80;99.90;;;;;;5011061;28;20037;-82
2022/09/11 09:17:10;;;;;;;94.75;46.67;;;16.90;99.90;;;;;;5009468;28;20034;-82
2022/09/11 09:19:48;;;;;;;102.93;49.53;;;16.90;99.90;;;;;;5010579;28;20022;-82
2022/09/11 09:22:25;;;;;;;99.65;47.30;;;16.90;99.90;;;;;;5026163;28;20072;-82
2022/09/11 09:24:59;;;;;;;98.10;47.35;;;16.90;99.90;;;;;;5009673;28;20076;-82
2022/09/11 09:27:38;;;;;;;93.72;45.10;;;16.90;99.90;;;;;;5009558;28;20034;-82
2022/09/11 09:30:14;;;;;;;82.70;41.85;;;16.90;99.90;;;;;;5009258;28;20030;-82
2022/09/11 09:32:57;;;;;;;81.85;41.25;;;16.90;99.90;;;;;;5026065;28;20483;-82
2022/09/11 09:35:49;;;;;;;79.55;39.90;;;16.90;99.90;;;;;;5012372;28;20026;-82
2022/09/11 09:38:26;;;;;;;79.03;39.95;;;17.00;99.90;;;;;;5011950;28;20091;-82
2022/09/11 09:41:14;;;;;;;79.30;40.40;;;17.00;99.90;;;;;;5029587;28;20061;-82
2022/09/11 09:44:18;;;;;;;81.53;40.25;;;17.00;99.90;;;;;;5013378;28;20552;-82
2022/09/11 09:46:47;;;;;;;69.20;35.33;;;17.00;99.90;;;;;;5014296;28;20033;-82
2022/09/11 09:49:22;;;;;;;75.60;38.55;;;17.10;99.90;;;;;;5014530;28;20064;-82
2022/09/11 09:51:48;;;;;;;66.38;37.05;;;17.10;99.90;;;;;;5014537;28;20026;-82
2022/09/11 09:54:18;;;;;;;81.47;41.88;;;17.10;99.90;;;;;;5029770;28;20045;-82
2022/09/11 09:56:52;;;;;;;84.25;42.28;;;17.20;99.90;;;;;;5014741;28;20073;-82
2022/09/11 09:59:22;;;;;;;89.13;44.95;;;17.20;99.90;;;;;;5014088;28;20034;-82
2022/09/11 10:01:50;;;;;;;82.03;41.97;;;17.30;99.90;;;;;;5014324;28;20486;-82
2022/09/11 10:04:25;;;;;;;82.70;44.05;;;17.30;99.90;;;;;;5014542;28;20112;-82
2022/09/11 10:07:03;;;;;;;77.93;41.38;;;17.40;99.90;;;;;;5014082;28;20530;-82
2022/09/11 10:09:29;;;;;;;74.40;41.20;;;17.40;99.90;;;;;;5014523;28;20038;-82
2022/09/11 10:12:11;;;;;;;70.40;38.33;;;17.40;99.90;;;;;;5014089;28;20601;-82
2022/09/11 10:14:48;;;;;;;68.47;37.53;;;17.50;99.90;;;;;;5014114;28;20053;-82
2022/09/11 10:17:30;;;;;;;63.17;36.30;;;17.50;99.90;;;;;;5013935;28;20030;-82
2022/09/11 10:20:25;;;;;;;65.82;36.55;;;17.50;99.90;;;;;;5014047;28;20030;-82
2022/09/11 10:22:54;;;;;;;61.10;34.38;;;17.60;99.90;;;;;;5009428;28;20065;-82
2022/09/11 10:25:25;;;;;;;64.10;35.75;;;17.60;99.90;;;;;;5014065;28;20038;-82
2022/09/11 10:28:16;;;;;;;72.13;37.47;;;17.70;99.90;;;;;;5013679;28;20041;-82
2022/09/11 10:30:53;;;;;;;57.67;33.05;;;17.70;99.90;;;;;;5013947;28;20029;-82
2022/09/11 10:33:29;;;;;;;62.15;34.45;;;17.80;99.90;;;;;;5013964;28;20044;-82
2022/09/11 10:35:57;;;;;;;63.22;36.10;;;17.80;99.90;;;;;;5013623;28;20042;-82
2022/09/11 10:38:43;;;;;;;64.03;35.05;;;17.90;99.90;;;;;;5013669;28;20052;-82
2022/09/11 10:41:14;;;;;;;67.85;38.15;;;17.90;99.90;;;;;;5002161;28;20449;-82
2022/09/11 10:44:00;;;;;;;62.92;35.63;;;18.00;99.90;;;;;;5013701;28;20021;-82
2022/09/11 10:46:33;;;;;;;67.10;38.17;;;18.00;99.90;;;;;;5012368;28;20064;-82
2022/09/11 10:49:02;;;;;;;63.30;35.97;;;18.10;99.90;;;;;;5013220;28;20026;-82
2022/09/11 10:51:30;;;;;;;66.10;38.50;;;18.10;99.90;;;;;;5013903;28;20034;-82
2022/09/11 10:54:18;;;;;;;64.70;37.13;;;18.20;99.90;;;;;;5013571;28;20120;-82
2022/09/11 10:57:22;;;;;;;66.80;37.17;;;18.10;99.90;;;;;;5013125;28;20038;-82
2022/09/11 11:00:23;;;;;;;68.38;37.08;;;18.20;99.90;;;;;;4997293;28;20177;-82
2022/09/11 11:03:11;;;;;;;60.38;37.17;;;18.30;99.90;;;;;;5013199;28;20091;-82
2022/09/11 11:06:03;;;;;;;60.30;35.55;;;18.30;99.90;;;;;;5013020;28;20493;-82
2022/09/11 11:08:50;;;;;;;54.63;33.30;;;18.40;99.90;;;;;;5013442;28;20034;-82
2022/09/11 11:11:39;;;;;;;55.45;35.38;;;18.50;99.90;;;;;;5012999;28;20117;-82
2022/09/11 11:14:07;;;;;;;46.75;29.55;;;18.50;99.90;;;;;;5012936;28;20088;-82
2022/09/11 11:16:45;;;;;;;45.35;30.60;;;18.50;99.90;;;;;;5013008;28;20026;-82
2022/09/11 11:19:37;;;;;;;52.50;32.20;;;18.50;99.90;;;;;;5012655;28;20045;-82
2022/09/11 11:22:06;;;;;;;40.67;27.05;;;18.40;99.90;;;;;;5013025;28;20379;-82
2022/09/11 11:24:59;;;;;;;39.22;26.27;;;18.40;99.90;;;;;;5012864;28;20383;-82
2022/09/11 11:27:37;;;;;;;37.95;27.40;;;18.40;99.90;;;;;;5012774;28;20335;-82
2022/09/11 11:30:11;;;;;;;33.88;24.58;;;18.30;99.90;;;;;;5012548;28;20034;-82
2022/09/11 11:33:09;;;;;;;39.88;28.48;;;18.30;99.90;;;;;;5028063;28;20405;-82
2022/09/11 11:35:43;;;;;;;45.22;31.27;;;18.30;99.90;;;;;;5011328;28;20038;-82
2022/09/11 11:38:17;;;;;;;44.05;30.65;;;18.40;99.90;;;;;;5012586;28;20033;-82
2022/09/11 11:40:48;;;;;;;44.45;31.25;;;18.30;99.90;;;;;;5012410;28;20068;-82
2022/09/11 11:43:20;;;;;;;44.85;32.70;;;18.30;99.90;;;;;;5012496;28;20032;-82
2022/09/11 11:46:07;;;;;;;39.22;27.27;;;18.30;99.90;;;;;;5012318;28;20117;-82
2022/09/11 11:48:39;;;;;;;40.15;27.58;;;18.20;99.90;;;;;;5012568;28;20037;-82
2022/09/11 11:51:09;;;;;;;34.58;24.40;;;18.20;99.90;;;;;;5012728;28;20030;-82
2022/09/11 11:53:49;;;;;;;;;;;18.30;99.90;;;;;;5012893;28;20032;-82
2022/09/11 11:56:21;;;;;;;29.17;20.85;;;18.30;99.90;;;;;;5012411;28;19916;-82
2022/09/11 11:59:06;;;;;;;31.23;21.23;;;18.30;99.90;;;;;;5010414;28;20034;-82
2022/09/11 12:02:04;;;;;;;29.83;20.35;;;18.40;99.90;;;;;;5012265;28;20026;-81
2022/09/11 12:04:45;;;;;;;26.40;18.45;;;18.40;99.90;;;;;;5012414;28;20033;-82
2022/09/11 12:07:15;;;;;;;25.00;18.40;;;18.50;99.90;;;;;;5011965;28;20033;-81
2022/09/11 12:09:49;;;;;;;21.83;17.95;;;18.50;99.90;;;;;;5027160;28;20033;-82
2022/09/11 12:12:16;;;;;;;30.05;20.50;;;18.50;99.90;;;;;;5012145;28;20030;-81
2022/09/11 12:15:00;;;;;;;24.60;20.05;;;18.50;99.90;;;;;;5010962;28;20086;-82
2022/09/11 12:17:32;;;;;;;24.83;18.88;;;18.50;99.90;;;;;;5011571;28;20030;-81
2022/09/11 12:20:09;;;;;;;22.08;17.27;;;18.50;99.90;;;;;;5010159;28;20486;-82
2022/09/11 12:22:41;;;;;;;23.40;17.10;;;18.50;99.90;;;;;;5011932;28;20088;-82
2022/09/11 12:25:27;;;;;;;19.80;16.02;;;18.40;99.90;;;;;;5012192;28;20126;-82
2022/09/11 12:28:09;;;;;;;21.27;15.93;;;18.40;99.90;;;;;;5011493;28;20120;-82
2022/09/11 12:30:56;;;;;;;20.90;15.07;;;18.40;99.90;;;;;;5011479;28;20029;-82
2022/09/11 12:33:45;;;;;;;20.30;15.07;;;18.40;99.90;;;;;;5011679;28;20029;-82
2022/09/11 12:36:32;;;;;;;18.23;13.82;;;18.40;99.90;;;;;;5011507;28;20037;-82
2022/09/11 12:39:02;;;;;;;19.08;13.82;;;18.40;99.90;;;;;;5009911;28;20036;-82
2022/09/11 12:41:35;;;;;;;16.77;12.57;;;18.50;99.90;;;;;;5011450;28;20040;-82
2022/09/11 12:44:03;;;;;;;16.60;13.15;;;18.50;99.90;;;;;;5011495;28;20053;-82
2022/09/11 12:46:28;;;;;;;15.40;12.23;;;18.50;99.90;;;;;;5011317;28;20064;-82
2022/09/11 12:49:05;;;;;;;24.35;17.33;;;18.50;99.90;;;;;;5010026;28;20297;-82
2022/09/11 12:51:41;;;;;;;24.30;17.33;;;18.50;99.90;;;;;;5011395;28;20402;-82
2022/09/11 12:54:22;;;;;;;24.60;16.55;;;18.50;99.90;;;;;;5011253;28;20076;-82
2022/09/11 12:56:52;;;;;;;24.20;16.75;;;18.50;99.90;;;;;;5011152;28;20033;-82
2022/09/11 12:59:30;;;;;;;28.05;17.67;;;18.50;99.90;;;;;;5011072;28;20029;-82